Zim Texas — V7VE3 — position and weather

sailwx.info

Track history (hours):
 
Tides and Currents Weather Stations Pressure Air Temp Water Temp Dewpoint Dewpoint Depression Visibility Wind Speed Wind Dir Waves Ship Positions

Zim Texas

Last reported at 2018-Jan-23 00:00 UTC. Time now 2018-Jan-23 00:10 UTC.
Position N 37°50' E 024°27'.

Length 261 m; draft 10.3 m.

Type: Ship (hazmat cat A). MMSI: 538004099.

Date/timePositionNaut miles runAvg speedWind from/ knotsBaromVisibWave heightAir tempDewpointWater temp
2018-Jan-23 00:00N 37°50' E 024°27'917.2
2018-Jan-22 23:30N 37°56' E 024°35'2316.6
2018-Jan-22 22:08N 38°10' E 024°57'716.8
2018-Jan-22 21:43N 38°13' E 025°05'416.8
2018-Jan-22 21:30N 38°16' E 025°09'54 1.6
2018-Jan-21 10:51N 37°35' E 025°54'721.1
2018-Jan-21 10:30N 37°28' E 025°56'1122.0
2018-Jan-21 10:00N 37°18' E 026°01'1122.1
2018-Jan-21 09:30N 37°08' E 026°06'1222.7
2018-Jan-21 08:59N 36°57' E 026°13'1122.5
2018-Jan-21 08:31N 36°49' E 026°22'1122.3
2018-Jan-21 08:00N 36°42' E 026°32'1222.0
2018-Jan-21 07:28N 36°34' E 026°43'  
Track history (hours):
 
Tides and Currents Weather Stations Pressure Air Temp Water Temp Dewpoint Dewpoint Depression Visibility Wind Speed Wind Dir Waves Ship Positions

Zim Texas

Last reported at 2018-Jan-23 00:00 UTC. Time now 2018-Jan-23 00:10 UTC.
Position N 37°50' E 024°27'.

Length 261 m; draft 10.3 m.

Type: Ship (hazmat cat A). MMSI: 538004099.

Date/timePositionNaut miles runAvg speedWind from/ knotsBaromVisibWave heightAir tempDewpointWater temp
2018-Jan-23 00:00N 37°50' E 024°27'917.2
2018-Jan-22 23:30N 37°56' E 024°35'2316.6
2018-Jan-22 22:08N 38°10' E 024°57'716.8
2018-Jan-22 21:43N 38°13' E 025°05'416.8
2018-Jan-22 21:30N 38°16' E 025°09'54 1.6
2018-Jan-21 10:51N 37°35' E 025°54'721.1
2018-Jan-21 10:30N 37°28' E 025°56'1122.0
2018-Jan-21 10:00N 37°18' E 026°01'1122.1
2018-Jan-21 09:30N 37°08' E 026°06'1222.7
2018-Jan-21 08:59N 36°57' E 026°13'1122.5
2018-Jan-21 08:31N 36°49' E 026°22'1122.3
2018-Jan-21 08:00N 36°42' E 026°32'1222.0
2018-Jan-21 07:28N 36°34' E 026°43'  

Dump ship's entire track history